Big Piney, WY weather

Big Piney-Marbleton Airport (AMOS), Big Piney, WY: 5/1/2016 18:53
Visibility10 statute milesclear sky
View 7-Day Forecast
Area Summary
Sky/CloudsSky Clear
Weather [last 24 hours]None
Pressure30.2 in.Hg (1023 hPa)
Dew Point18 F (-7.8 C)
Relative Humidity29.8 %
Temperature48 F (8.9 C)red thermometer
Wind Chill40.6 F (4.79 C)
Reading TimeMinimum to Maximum Temperature
6-hr ending 5/1@17:5342.1 F to 54 F (5.6 C to 12.2 C)
6-hr ending 5/1@11:5323 F to 45 F (-5 C to 7.2 C)
6-hr ending 5/1@05:5323 F to 32 F (-5 C to 0 C)
6-hr ending 4/30@23:5328.9 F to 43 F (-1.7 C to 6.1 C)
24-hr ending 5/1@00:5328.9 F to 48 F (-1.7 C to 8.9 C)
Wind21.9 MPH (19 KT) green arrow pointing 225 degrees
Wind FromSouthwest (220 Degrees)
Twilight Begins05:41Sunshine Yesterday
Sunrise06:12N/A
Sunset20:24
Twilight Ends20:55
METARKBPI 020053Z AUTO 22019KT 10SM CLR 09/M08 A3020 RMK AO2 SLP210 T00891078
Tags: